sensor_id;sensor_type;location;lat;lon;timestamp;P1;durP1;ratioP1;P2;durP2;ratioP2
66707;SDS011;53622;0.000;0.000;2024-01-10T00:00:33;4.13;;;3.72;;
66707;SDS011;53622;0.000;0.000;2024-01-10T00:03:01;4.47;;;4.18;;
66707;SDS011;53622;0.000;0.000;2024-01-10T00:05:30;4.88;;;4.47;;
66707;SDS011;53622;0.000;0.000;2024-01-10T00:07:59;4.35;;;3.95;;
66707;SDS011;53622;0.000;0.000;2024-01-10T00:10:28;4.82;;;4.43;;
66707;SDS011;53622;0.000;0.000;2024-01-10T00:12:57;4.50;;;4.10;;
66707;SDS011;53622;0.000;0.000;2024-01-10T00:15:27;4.40;;;4.00;;
66707;SDS011;53622;0.000;0.000;2024-01-10T00:17:55;4.88;;;4.43;;
66707;SDS011;53622;0.000;0.000;2024-01-10T00:20:24;4.82;;;4.38;;
66707;SDS011;53622;0.000;0.000;2024-01-10T00:22:53;4.90;;;4.50;;
66707;SDS011;53622;0.000;0.000;2024-01-10T00:25:22;4.85;;;4.45;;
66707;SDS011;53622;0.000;0.000;2024-01-10T00:27:50;4.63;;;4.22;;
66707;SDS011;53622;0.000;0.000;2024-01-10T00:30:19;5.07;;;4.68;;
66707;SDS011;53622;0.000;0.000;2024-01-10T00:32:49;5.25;;;4.75;;
66707;SDS011;53622;0.000;0.000;2024-01-10T00:35:18;4.78;;;4.38;;
66707;SDS011;53622;0.000;0.000;2024-01-10T00:37:47;5.50;;;5.00;;
66707;SDS011;53622;0.000;0.000;2024-01-10T00:40:16;4.38;;;3.97;;
66707;SDS011;53622;0.000;0.000;2024-01-10T00:42:44;5.25;;;4.75;;
66707;SDS011;53622;0.000;0.000;2024-01-10T00:45:13;4.85;;;4.45;;
66707;SDS011;53622;0.000;0.000;2024-01-10T00:47:42;4.80;;;4.40;;
66707;SDS011;53622;0.000;0.000;2024-01-10T00:50:12;4.50;;;4.10;;
66707;SDS011;53622;0.000;0.000;2024-01-10T00:52:41;4.78;;;4.38;;
66707;SDS011;53622;0.000;0.000;2024-01-10T00:55:10;4.60;;;4.20;;
66707;SDS011;53622;0.000;0.000;2024-01-10T00:57:39;4.75;;;4.25;;
66707;SDS011;53622;0.000;0.000;2024-01-10T01:00:08;4.47;;;4.07;;
66707;SDS011;53622;0.000;0.000;2024-01-10T01:02:38;4.15;;;3.80;;
66707;SDS011;53622;0.000;0.000;2024-01-10T01:05:07;4.88;;;4.40;;
66707;SDS011;53622;0.000;0.000;2024-01-10T01:07:38;4.63;;;4.22;;
66707;SDS011;53622;0.000;0.000;2024-01-10T01:10:07;4.60;;;4.20;;
66707;SDS011;53622;0.000;0.000;2024-01-10T01:12:36;4.35;;;3.97;;
66707;SDS011;53622;0.000;0.000;2024-01-10T01:15:06;4.70;;;4.30;;
66707;SDS011;53622;0.000;0.000;2024-01-10T01:17:35;4.25;;;3.95;;
66707;SDS011;53622;0.000;0.000;2024-01-10T01:20:05;4.55;;;4.15;;
66707;SDS011;53622;0.000;0.000;2024-01-10T01:22:34;4.57;;;4.05;;
66707;SDS011;53622;0.000;0.000;2024-01-10T01:25:05;4.60;;;4.20;;
66707;SDS011;53622;0.000;0.000;2024-01-10T01:27:34;4.90;;;4.20;;
66707;SDS011;53622;0.000;0.000;2024-01-10T01:30:03;4.88;;;4.47;;
66707;SDS011;53622;0.000;0.000;2024-01-10T01:32:33;5.05;;;4.55;;
66707;SDS011;53622;0.000;0.000;2024-01-10T01:35:02;4.45;;;4.05;;
66707;SDS011;53622;0.000;0.000;2024-01-10T01:37:31;4.43;;;4.03;;
66707;SDS011;53622;0.000;0.000;2024-01-10T01:39:59;4.75;;;4.35;;
66707;SDS011;53622;0.000;0.000;2024-01-10T01:42:30;4.43;;;4.03;;
66707;SDS011;53622;0.000;0.000;2024-01-10T01:44:59;4.75;;;4.35;;
66707;SDS011;53622;0.000;0.000;2024-01-10T01:47:27;4.43;;;4.03;;
66707;SDS011;53622;0.000;0.000;2024-01-10T01:49:56;4.38;;;4.00;;
66707;SDS011;53622;0.000;0.000;2024-01-10T01:52:25;4.50;;;4.10;;
66707;SDS011;53622;0.000;0.000;2024-01-10T01:54:58;5.60;;;4.40;;
66707;SDS011;53622;0.000;0.000;2024-01-10T01:57:27;4.65;;;4.25;;
66707;SDS011;53622;0.000;0.000;2024-01-10T01:59:57;4.35;;;4.03;;
66707;SDS011;53622;0.000;0.000;2024-01-10T02:02:26;4.50;;;4.10;;
66707;SDS011;53622;0.000;0.000;2024-01-10T02:04:57;4.78;;;4.38;;
66707;SDS011;53622;0.000;0.000;2024-01-10T02:07:27;4.93;;;4.47;;
66707;SDS011;53622;0.000;0.000;2024-01-10T02:09:55;4.72;;;4.32;;
66707;SDS011;53622;0.000;0.000;2024-01-10T02:12:24;4.97;;;4.57;;
66707;SDS011;53622;0.000;0.000;2024-01-10T02:14:53;5.20;;;4.75;;
66707;SDS011;53622;0.000;0.000;2024-01-10T02:17:23;5.10;;;4.63;;
66707;SDS011;53622;0.000;0.000;2024-01-10T02:20:07;5.45;;;4.95;;
66707;SDS011;53622;0.000;0.000;2024-01-10T02:22:36;4.60;;;4.20;;
66707;SDS011;53622;0.000;0.000;2024-01-10T02:25:07;4.95;;;4.55;;
66707;SDS011;53622;0.000;0.000;2024-01-10T02:27:36;5.05;;;4.55;;
66707;SDS011;53622;0.000;0.000;2024-01-10T02:30:06;5.53;;;4.28;;
66707;SDS011;53622;0.000;0.000;2024-01-10T02:32:37;4.80;;;4.40;;
66707;SDS011;53622;0.000;0.000;2024-01-10T02:35:07;4.90;;;4.50;;
66707;SDS011;53622;0.000;0.000;2024-01-10T02:37:36;5.00;;;4.60;;
66707;SDS011;53622;0.000;0.000;2024-01-10T02:40:07;4.72;;;4.32;;
66707;SDS011;53622;0.000;0.000;2024-01-10T02:42:36;4.85;;;4.45;;
66707;SDS011;53622;0.000;0.000;2024-01-10T02:45:05;5.30;;;4.80;;
66707;SDS011;53622;0.000;0.000;2024-01-10T02:47:34;5.38;;;4.88;;
66707;SDS011;53622;0.000;0.000;2024-01-10T02:50:04;5.15;;;4.65;;
66707;SDS011;53622;0.000;0.000;2024-01-10T02:52:34;5.25;;;4.75;;
66707;SDS011;53622;0.000;0.000;2024-01-10T02:55:02;5.22;;;4.72;;
66707;SDS011;53622;0.000;0.000;2024-01-10T02:57:33;4.75;;;4.35;;
66707;SDS011;53622;0.000;0.000;2024-01-10T03:00:02;5.15;;;4.75;;
66707;SDS011;53622;0.000;0.000;2024-01-10T03:02:32;5.20;;;4.70;;
66707;SDS011;53622;0.000;0.000;2024-01-10T03:05:01;5.00;;;4.60;;
66707;SDS011;53622;0.000;0.000;2024-01-10T03:07:30;5.85;;;5.35;;
66707;SDS011;53622;0.000;0.000;2024-01-10T03:09:59;4.88;;;4.47;;
66707;SDS011;53622;0.000;0.000;2024-01-10T03:12:28;4.97;;;4.57;;
66707;SDS011;53622;0.000;0.000;2024-01-10T03:14:58;4.72;;;4.32;;
66707;SDS011;53622;0.000;0.000;2024-01-10T03:17:27;4.93;;;4.50;;
66707;SDS011;53622;0.000;0.000;2024-01-10T03:19:56;5.47;;;4.97;;
66707;SDS011;53622;0.000;0.000;2024-01-10T03:22:25;5.15;;;4.75;;
66707;SDS011;53622;0.000;0.000;2024-01-10T03:24:53;5.05;;;4.65;;
66707;SDS011;53622;0.000;0.000;2024-01-10T03:27:22;4.80;;;4.40;;
66707;SDS011;53622;0.000;0.000;2024-01-10T03:29:51;5.18;;;4.68;;
66707;SDS011;53622;0.000;0.000;2024-01-10T03:32:21;5.78;;;4.70;;
66707;SDS011;53622;0.000;0.000;2024-01-10T03:34:50;5.18;;;4.68;;
66707;SDS011;53622;0.000;0.000;2024-01-10T03:37:19;5.00;;;4.50;;
66707;SDS011;53622;0.000;0.000;2024-01-10T03:39:48;5.15;;;4.72;;
66707;SDS011;53622;0.000;0.000;2024-01-10T03:42:16;5.43;;;4.93;;
66707;SDS011;53622;0.000;0.000;2024-01-10T03:44:45;5.60;;;5.10;;
66707;SDS011;53622;0.000;0.000;2024-01-10T03:47:14;5.13;;;4.72;;
66707;SDS011;53622;0.000;0.000;2024-01-10T03:49:44;5.47;;;4.97;;
66707;SDS011;53622;0.000;0.000;2024-01-10T03:52:13;5.50;;;5.00;;
66707;SDS011;53622;0.000;0.000;2024-01-10T03:54:42;5.20;;;4.78;;
66707;SDS011;53622;0.000;0.000;2024-01-10T03:57:11;5.60;;;4.65;;
66707;SDS011;53622;0.000;0.000;2024-01-10T03:59:39;5.50;;;5.00;;
66707;SDS011;53622;0.000;0.000;2024-01-10T04:02:08;5.20;;;4.70;;
66707;SDS011;53622;0.000;0.000;2024-01-10T04:04:37;5.72;;;5.13;;
66707;SDS011;53622;0.000;0.000;2024-01-10T04:07:07;5.20;;;4.80;;
66707;SDS011;53622;0.000;0.000;2024-01-10T04:09:36;5.20;;;4.80;;
66707;SDS011;53622;0.000;0.000;2024-01-10T04:12:05;5.38;;;4.95;;
66707;SDS011;53622;0.000;0.000;2024-01-10T04:14:34;5.60;;;5.10;;
66707;SDS011;53622;0.000;0.000;2024-01-10T04:17:03;5.80;;;5.30;;
66707;SDS011;53622;0.000;0.000;2024-01-10T04:19:33;5.80;;;5.30;;
66707;SDS011;53622;0.000;0.000;2024-01-10T04:22:02;5.57;;;5.07;;
66707;SDS011;53622;0.000;0.000;2024-01-10T04:24:33;5.50;;;5.00;;
66707;SDS011;53622;0.000;0.000;2024-01-10T04:27:01;5.05;;;4.65;;
66707;SDS011;53622;0.000;0.000;2024-01-10T04:29:32;5.03;;;4.57;;
66707;SDS011;53622;0.000;0.000;2024-01-10T04:32:01;5.63;;;5.13;;
66707;SDS011;53622;0.000;0.000;2024-01-10T04:34:30;4.82;;;4.43;;
66707;SDS011;53622;0.000;0.000;2024-01-10T04:36:58;4.93;;;4.53;;
66707;SDS011;53622;0.000;0.000;2024-01-10T04:39:27;5.28;;;4.78;;
66707;SDS011;53622;0.000;0.000;2024-01-10T04:41:57;4.78;;;4.38;;
66707;SDS011;53622;0.000;0.000;2024-01-10T04:44:26;5.85;;;5.15;;
66707;SDS011;53622;0.000;0.000;2024-01-10T04:46:55;5.53;;;5.03;;
66707;SDS011;53622;0.000;0.000;2024-01-10T04:49:23;5.65;;;5.00;;
66707;SDS011;53622;0.000;0.000;2024-01-10T04:51:52;5.68;;;5.18;;
66707;SDS011;53622;0.000;0.000;2024-01-10T04:54:21;4.80;;;4.40;;
66707;SDS011;53622;0.000;0.000;2024-01-10T04:56:50;5.28;;;4.78;;
66707;SDS011;53622;0.000;0.000;2024-01-10T04:59:20;4.95;;;4.53;;
66707;SDS011;53622;0.000;0.000;2024-01-10T05:01:49;5.13;;;4.70;;
66707;SDS011;53622;0.000;0.000;2024-01-10T05:04:18;4.95;;;4.55;;
66707;SDS011;53622;0.000;0.000;2024-01-10T05:06:46;5.22;;;4.78;;
66707;SDS011;53622;0.000;0.000;2024-01-10T05:09:15;5.30;;;4.80;;
66707;SDS011;53622;0.000;0.000;2024-01-10T05:11:44;5.30;;;4.90;;
66707;SDS011;53622;0.000;0.000;2024-01-10T05:14:17;5.15;;;4.75;;
66707;SDS011;53622;0.000;0.000;2024-01-10T05:16:49;5.28;;;4.78;;
66707;SDS011;53622;0.000;0.000;2024-01-10T05:19:19;5.45;;;4.95;;
66707;SDS011;53622;0.000;0.000;2024-01-10T05:21:48;4.97;;;4.57;;
66707;SDS011;53622;0.000;0.000;2024-01-10T05:24:16;5.25;;;4.82;;
66707;SDS011;53622;0.000;0.000;2024-01-10T05:26:46;5.55;;;5.05;;
66707;SDS011;53622;0.000;0.000;2024-01-10T05:29:18;5.90;;;5.40;;
66707;SDS011;53622;0.000;0.000;2024-01-10T05:31:51;5.32;;;4.88;;
66707;SDS011;53622;0.000;0.000;2024-01-10T05:34:20;5.05;;;4.65;;
66707;SDS011;53622;0.000;0.000;2024-01-10T05:36:49;5.03;;;4.63;;
66707;SDS011;53622;0.000;0.000;2024-01-10T05:39:17;5.18;;;4.78;;
66707;SDS011;53622;0.000;0.000;2024-01-10T05:41:47;5.43;;;5.03;;
66707;SDS011;53622;0.000;0.000;2024-01-10T05:44:17;5.07;;;4.68;;
66707;SDS011;53622;0.000;0.000;2024-01-10T05:46:46;5.53;;;5.03;;
66707;SDS011;53622;0.000;0.000;2024-01-10T05:49:17;5.05;;;4.63;;
66707;SDS011;53622;0.000;0.000;2024-01-10T05:51:45;5.15;;;4.75;;
66707;SDS011;53622;0.000;0.000;2024-01-10T05:54:14;5.15;;;4.72;;
66707;SDS011;53622;0.000;0.000;2024-01-10T05:56:44;5.13;;;4.65;;
66707;SDS011;53622;0.000;0.000;2024-01-10T05:59:13;4.88;;;4.47;;
66707;SDS011;53622;0.000;0.000;2024-01-10T06:01:43;5.00;;;4.60;;
66707;SDS011;53622;0.000;0.000;2024-01-10T06:04:12;4.70;;;4.30;;
66707;SDS011;53622;0.000;0.000;2024-01-10T06:06:42;4.55;;;4.15;;
66707;SDS011;53622;0.000;0.000;2024-01-10T06:09:12;5.03;;;4.53;;
66707;SDS011;53622;0.000;0.000;2024-01-10T06:11:42;5.68;;;5.13;;
66707;SDS011;53622;0.000;0.000;2024-01-10T06:14:10;16.13;;;5.85;;
66707;SDS011;53622;0.000;0.000;2024-01-10T06:16:39;7.85;;;5.90;;
66707;SDS011;53622;0.000;0.000;2024-01-10T06:19:08;9.20;;;5.95;;
66707;SDS011;53622;0.000;0.000;2024-01-10T06:21:37;10.65;;;5.85;;
66707;SDS011;53622;0.000;0.000;2024-01-10T06:24:08;10.48;;;6.40;;
66707;SDS011;53622;0.000;0.000;2024-01-10T06:26:36;12.10;;;7.78;;
66707;SDS011;53622;0.000;0.000;2024-01-10T06:29:05;13.50;;;6.75;;
66707;SDS011;53622;0.000;0.000;2024-01-10T06:31:34;11.25;;;5.78;;
66707;SDS011;53622;0.000;0.000;2024-01-10T06:34:03;9.75;;;5.05;;
66707;SDS011;53622;0.000;0.000;2024-01-10T06:36:31;6.40;;;4.93;;
66707;SDS011;53622;0.000;0.000;2024-01-10T06:39:00;7.03;;;5.10;;
66707;SDS011;53622;0.000;0.000;2024-01-10T06:41:31;6.10;;;5.18;;
66707;SDS011;53622;0.000;0.000;2024-01-10T06:44:00;5.88;;;4.60;;
66707;SDS011;53622;0.000;0.000;2024-01-10T06:46:31;7.35;;;4.70;;
66707;SDS011;53622;0.000;0.000;2024-01-10T06:49:00;10.85;;;8.10;;
66707;SDS011;53622;0.000;0.000;2024-01-10T06:51:29;12.82;;;6.72;;
66707;SDS011;53622;0.000;0.000;2024-01-10T06:53:58;9.88;;;6.45;;
66707;SDS011;53622;0.000;0.000;2024-01-10T06:56:32;10.82;;;6.43;;
66707;SDS011;53622;0.000;0.000;2024-01-10T06:59:01;7.78;;;6.25;;
66707;SDS011;53622;0.000;0.000;2024-01-10T07:01:30;6.95;;;6.05;;
66707;SDS011;53622;0.000;0.000;2024-01-10T07:03:59;6.45;;;5.85;;
66707;SDS011;53622;0.000;0.000;2024-01-10T07:06:28;8.20;;;5.50;;
66707;SDS011;53622;0.000;0.000;2024-01-10T07:08:57;7.07;;;5.57;;
66707;SDS011;53622;0.000;0.000;2024-01-10T07:11:26;6.78;;;6.07;;
66707;SDS011;53622;0.000;0.000;2024-01-10T07:13:58;8.23;;;4.95;;
66707;SDS011;53622;0.000;0.000;2024-01-10T07:16:28;11.38;;;6.10;;
66707;SDS011;53622;0.000;0.000;2024-01-10T07:18:59;8.55;;;5.05;;
66707;SDS011;53622;0.000;0.000;2024-01-10T07:21:28;6.55;;;5.30;;
66707;SDS011;53622;0.000;0.000;2024-01-10T07:23:57;7.60;;;5.13;;
66707;SDS011;53622;0.000;0.000;2024-01-10T07:26:26;6.13;;;4.63;;
66707;SDS011;53622;0.000;0.000;2024-01-10T07:28:55;5.60;;;4.85;;
66707;SDS011;53622;0.000;0.000;2024-01-10T07:31:25;7.15;;;5.22;;
66707;SDS011;53622;0.000;0.000;2024-01-10T07:33:56;6.53;;;4.88;;
66707;SDS011;53622;0.000;0.000;2024-01-10T07:36:25;5.43;;;4.30;;
66707;SDS011;53622;0.000;0.000;2024-01-10T07:38:54;4.85;;;4.20;;
66707;SDS011;53622;0.000;0.000;2024-01-10T07:41:26;5.75;;;4.05;;
66707;SDS011;53622;0.000;0.000;2024-01-10T07:43:56;4.72;;;3.92;;
66707;SDS011;53622;0.000;0.000;2024-01-10T07:46:26;4.43;;;4.03;;
66707;SDS011;53622;0.000;0.000;2024-01-10T07:48:55;5.30;;;3.88;;
66707;SDS011;53622;0.000;0.000;2024-01-10T07:51:24;4.47;;;3.85;;
66707;SDS011;53622;0.000;0.000;2024-01-10T07:53:52;5.50;;;4.00;;
66707;SDS011;53622;0.000;0.000;2024-01-10T07:56:21;4.55;;;3.70;;
66707;SDS011;53622;0.000;0.000;2024-01-10T07:58:50;5.32;;;3.67;;
66707;SDS011;53622;0.000;0.000;2024-01-10T08:01:19;3.78;;;3.45;;
66707;SDS011;53622;0.000;0.000;2024-01-10T08:03:49;3.83;;;3.47;;
66707;SDS011;53622;0.000;0.000;2024-01-10T08:06:19;3.75;;;3.45;;
66707;SDS011;53622;0.000;0.000;2024-01-10T08:08:58;5.10;;;3.40;;
66707;SDS011;53622;0.000;0.000;2024-01-10T08:11:27;4.28;;;3.60;;
66707;SDS011;53622;0.000;0.000;2024-01-10T08:13:56;3.83;;;3.42;;
66707;SDS011;53622;0.000;0.000;2024-01-10T08:16:24;4.43;;;3.33;;
66707;SDS011;53622;0.000;0.000;2024-01-10T08:18:54;3.50;;;2.97;;
66707;SDS011;53622;0.000;0.000;2024-01-10T08:21:23;4.25;;;3.70;;
66707;SDS011;53622;0.000;0.000;2024-01-10T08:23:52;3.75;;;3.45;;
66707;SDS011;53622;0.000;0.000;2024-01-10T08:26:21;3.63;;;3.33;;
66707;SDS011;53622;0.000;0.000;2024-01-10T08:28:49;3.65;;;3.30;;
66707;SDS011;53622;0.000;0.000;2024-01-10T08:31:18;3.80;;;3.20;;
66707;SDS011;53622;0.000;0.000;2024-01-10T08:33:47;5.18;;;3.58;;
66707;SDS011;53622;0.000;0.000;2024-01-10T08:36:17;3.78;;;3.47;;
66707;SDS011;53622;0.000;0.000;2024-01-10T08:38:46;4.20;;;3.80;;
66707;SDS011;53622;0.000;0.000;2024-01-10T08:41:15;3.65;;;3.35;;
66707;SDS011;53622;0.000;0.000;2024-01-10T08:43:44;3.50;;;3.20;;
66707;SDS011;53622;0.000;0.000;2024-01-10T08:46:13;3.75;;;3.45;;
66707;SDS011;53622;0.000;0.000;2024-01-10T08:48:42;3.22;;;2.92;;
66707;SDS011;53622;0.000;0.000;2024-01-10T08:51:11;3.58;;;3.28;;
66707;SDS011;53622;0.000;0.000;2024-01-10T08:53:44;3.17;;;2.97;;
66707;SDS011;53622;0.000;0.000;2024-01-10T08:56:13;3.88;;;3.35;;
66707;SDS011;53622;0.000;0.000;2024-01-10T08:58:43;4.05;;;3.65;;
66707;SDS011;53622;0.000;0.000;2024-01-10T09:01:12;4.07;;;3.60;;
66707;SDS011;53622;0.000;0.000;2024-01-10T09:03:41;3.50;;;3.20;;
66707;SDS011;53622;0.000;0.000;2024-01-10T09:06:10;5.00;;;3.50;;
66707;SDS011;53622;0.000;0.000;2024-01-10T09:08:39;3.58;;;3.28;;
66707;SDS011;53622;0.000;0.000;2024-01-10T09:11:10;5.60;;;3.80;;
66707;SDS011;53622;0.000;0.000;2024-01-10T09:13:38;3.40;;;3.10;;
66707;SDS011;53622;0.000;0.000;2024-01-10T09:16:07;4.05;;;3.65;;
66707;SDS011;53622;0.000;0.000;2024-01-10T09:18:36;3.67;;;3.38;;
66707;SDS011;53622;0.000;0.000;2024-01-10T09:21:07;4.47;;;3.90;;
66707;SDS011;53622;0.000;0.000;2024-01-10T09:23:36;3.88;;;3.58;;
66707;SDS011;53622;0.000;0.000;2024-01-10T09:26:04;3.33;;;3.05;;
66707;SDS011;53622;0.000;0.000;2024-01-10T09:28:35;4.20;;;3.83;;
66707;SDS011;53622;0.000;0.000;2024-01-10T09:31:04;4.00;;;3.60;;
66707;SDS011;53622;0.000;0.000;2024-01-10T09:33:34;4.78;;;4.00;;
66707;SDS011;53622;0.000;0.000;2024-01-10T09:36:03;4.95;;;4.43;;
66707;SDS011;53622;0.000;0.000;2024-01-10T09:38:34;3.78;;;3.47;;
66707;SDS011;53622;0.000;0.000;2024-01-10T09:41:04;5.15;;;3.67;;
66707;SDS011;53622;0.000;0.000;2024-01-10T09:43:34;4.32;;;3.92;;
66707;SDS011;53622;0.000;0.000;2024-01-10T09:46:03;4.60;;;4.20;;
66707;SDS011;53622;0.000;0.000;2024-01-10T09:48:37;5.32;;;3.40;;
66707;SDS011;53622;0.000;0.000;2024-01-10T09:51:05;3.67;;;3.38;;
66707;SDS011;53622;0.000;0.000;2024-01-10T09:53:35;4.28;;;3.85;;
66707;SDS011;53622;0.000;0.000;2024-01-10T09:56:08;3.90;;;3.50;;
66707;SDS011;53622;0.000;0.000;2024-01-10T09:58:39;5.45;;;4.05;;
66707;SDS011;53622;0.000;0.000;2024-01-10T10:01:11;5.45;;;4.95;;
66707;SDS011;53622;0.000;0.000;2024-01-10T10:03:41;7.15;;;4.00;;
66707;SDS011;53622;0.000;0.000;2024-01-10T10:06:13;4.10;;;3.80;;
66707;SDS011;53622;0.000;0.000;2024-01-10T10:08:42;4.40;;;3.60;;
66707;SDS011;53622;0.000;0.000;2024-01-10T10:11:11;4.15;;;3.75;;
66707;SDS011;53622;0.000;0.000;2024-01-10T10:13:42;3.70;;;3.40;;
66707;SDS011;53622;0.000;0.000;2024-01-10T10:16:12;5.05;;;4.07;;
66707;SDS011;53622;0.000;0.000;2024-01-10T10:18:41;4.75;;;3.58;;
66707;SDS011;53622;0.000;0.000;2024-01-10T10:21:16;3.92;;;3.60;;
66707;SDS011;53622;0.000;0.000;2024-01-10T10:23:56;4.00;;;3.60;;
66707;SDS011;53622;0.000;0.000;2024-01-10T10:26:27;5.05;;;3.95;;
66707;SDS011;53622;0.000;0.000;2024-01-10T10:28:58;4.50;;;3.42;;
66707;SDS011;53622;0.000;0.000;2024-01-10T10:31:27;4.70;;;3.75;;
66707;SDS011;53622;0.000;0.000;2024-01-10T10:33:58;3.80;;;3.50;;
66707;SDS011;53622;0.000;0.000;2024-01-10T10:36:29;4.10;;;3.65;;
66707;SDS011;53622;0.000;0.000;2024-01-10T10:39:00;4.47;;;3.72;;
66707;SDS011;53622;0.000;0.000;2024-01-10T10:41:31;3.80;;;3.50;;
66707;SDS011;53622;0.000;0.000;2024-01-10T10:44:05;4.25;;;3.95;;
66707;SDS011;53622;0.000;0.000;2024-01-10T10:46:37;4.72;;;3.30;;
66707;SDS011;53622;0.000;0.000;2024-01-10T10:49:09;9.45;;;4.18;;
66707;SDS011;53622;0.000;0.000;2024-01-10T10:51:40;6.38;;;3.67;;
66707;SDS011;53622;0.000;0.000;2024-01-10T10:54:10;6.15;;;3.80;;
66707;SDS011;53622;0.000;0.000;2024-01-10T10:56:42;7.05;;;4.22;;
66707;SDS011;53622;0.000;0.000;2024-01-10T10:59:14;5.13;;;3.95;;
66707;SDS011;53622;0.000;0.000;2024-01-10T11:01:47;4.30;;;3.78;;
66707;SDS011;53622;0.000;0.000;2024-01-10T11:04:17;5.28;;;3.90;;
66707;SDS011;53622;0.000;0.000;2024-01-10T11:06:48;4.28;;;3.88;;
66707;SDS011;53622;0.000;0.000;2024-01-10T11:09:17;4.93;;;3.70;;
66707;SDS011;53622;0.000;0.000;2024-01-10T11:11:53;4.40;;;3.88;;
66707;SDS011;53622;0.000;0.000;2024-01-10T11:14:43;4.70;;;4.30;;
66707;SDS011;53622;0.000;0.000;2024-01-10T11:17:39;5.35;;;3.83;;
66707;SDS011;53622;0.000;0.000;2024-01-10T11:20:36;6.85;;;4.25;;
66707;SDS011;53622;0.000;0.000;2024-01-10T11:23:28;5.35;;;4.00;;
66707;SDS011;53622;0.000;0.000;2024-01-10T11:26:11;7.35;;;4.82;;
66707;SDS011;53622;0.000;0.000;2024-01-10T11:28:40;5.55;;;5.03;;
66707;SDS011;53622;0.000;0.000;2024-01-10T11:31:12;9.48;;;8.57;;
66707;SDS011;53622;0.000;0.000;2024-01-10T11:33:42;8.18;;;7.38;;
66707;SDS011;53622;0.000;0.000;2024-01-10T11:36:17;8.23;;;7.50;;
66707;SDS011;53622;0.000;0.000;2024-01-10T11:38:53;7.85;;;7.15;;
66707;SDS011;53622;0.000;0.000;2024-01-10T11:41:24;7.53;;;6.82;;
66707;SDS011;53622;0.000;0.000;2024-01-10T11:46:56;6.63;;;6.03;;
66707;SDS011;53622;0.000;0.000;2024-01-10T11:49:26;6.38;;;5.88;;
66707;SDS011;53622;0.000;0.000;2024-01-10T11:51:55;6.40;;;5.90;;
66707;SDS011;53622;0.000;0.000;2024-01-10T11:54:37;6.55;;;5.95;;
66707;SDS011;53622;0.000;0.000;2024-01-10T11:57:08;6.25;;;5.65;;
66707;SDS011;53622;0.000;0.000;2024-01-10T11:59:39;6.50;;;5.78;;
66707;SDS011;53622;0.000;0.000;2024-01-10T12:02:11;6.90;;;5.85;;
66707;SDS011;53622;0.000;0.000;2024-01-10T12:04:42;5.45;;;5.00;;
66707;SDS011;53622;0.000;0.000;2024-01-10T12:07:15;5.40;;;5.00;;
66707;SDS011;53622;0.000;0.000;2024-01-10T12:09:46;5.60;;;5.10;;
66707;SDS011;53622;0.000;0.000;2024-01-10T12:12:15;5.57;;;5.07;;
66707;SDS011;53622;0.000;0.000;2024-01-10T12:14:44;5.30;;;4.80;;
66707;SDS011;53622;0.000;0.000;2024-01-10T12:17:15;5.25;;;4.75;;
66707;SDS011;53622;0.000;0.000;2024-01-10T12:19:45;5.57;;;5.07;;
66707;SDS011;53622;0.000;0.000;2024-01-10T12:22:15;4.78;;;4.38;;
66707;SDS011;53622;0.000;0.000;2024-01-10T12:24:47;5.38;;;4.88;;
66707;SDS011;53622;0.000;0.000;2024-01-10T12:27:18;4.97;;;4.50;;
66707;SDS011;53622;0.000;0.000;2024-01-10T12:29:49;4.72;;;4.25;;
66707;SDS011;53622;0.000;0.000;2024-01-10T12:32:21;5.25;;;4.85;;
66707;SDS011;53622;0.000;0.000;2024-01-10T12:34:59;4.72;;;4.32;;
66707;SDS011;53622;0.000;0.000;2024-01-10T12:37:29;4.72;;;4.32;;
66707;SDS011;53622;0.000;0.000;2024-01-10T12:39:58;5.07;;;4.68;;
66707;SDS011;53622;0.000;0.000;2024-01-10T12:42:30;5.07;;;4.57;;
66707;SDS011;53622;0.000;0.000;2024-01-10T12:44:58;5.10;;;4.65;;
66707;SDS011;53622;0.000;0.000;2024-01-10T12:47:29;6.80;;;5.70;;
66707;SDS011;53622;0.000;0.000;2024-01-10T12:49:58;7.93;;;6.45;;
66707;SDS011;53622;0.000;0.000;2024-01-10T12:52:26;6.22;;;5.15;;
66707;SDS011;53622;0.000;0.000;2024-01-10T12:54:55;4.88;;;4.40;;
66707;SDS011;53622;0.000;0.000;2024-01-10T12:57:24;5.75;;;4.88;;
66707;SDS011;53622;0.000;0.000;2024-01-10T12:59:53;5.30;;;4.80;;
66707;SDS011;53622;0.000;0.000;2024-01-10T13:02:21;5.10;;;4.60;;
66707;SDS011;53622;0.000;0.000;2024-01-10T13:04:51;5.65;;;4.45;;
66707;SDS011;53622;0.000;0.000;2024-01-10T13:07:21;5.22;;;4.40;;
66707;SDS011;53622;0.000;0.000;2024-01-10T13:09:50;9.20;;;4.57;;
66707;SDS011;53622;0.000;0.000;2024-01-10T13:12:19;6.10;;;4.70;;
66707;SDS011;53622;0.000;0.000;2024-01-10T13:14:48;5.28;;;4.20;;
66707;SDS011;53622;0.000;0.000;2024-01-10T13:17:17;5.88;;;4.22;;
66707;SDS011;53622;0.000;0.000;2024-01-10T13:19:46;10.57;;;6.88;;
66707;SDS011;53622;0.000;0.000;2024-01-10T13:22:17;6.43;;;5.75;;
66707;SDS011;53622;0.000;0.000;2024-01-10T13:24:47;7.63;;;6.13;;
66707;SDS011;53622;0.000;0.000;2024-01-10T13:27:15;5.93;;;5.32;;
66707;SDS011;53622;0.000;0.000;2024-01-10T13:29:47;5.97;;;5.28;;
66707;SDS011;53622;0.000;0.000;2024-01-10T13:32:16;5.97;;;4.85;;
66707;SDS011;53622;0.000;0.000;2024-01-10T13:34:45;5.60;;;5.10;;
66707;SDS011;53622;0.000;0.000;2024-01-10T13:37:14;4.97;;;4.00;;
66707;SDS011;53622;0.000;0.000;2024-01-10T13:39:44;5.40;;;4.70;;
66707;SDS011;53622;0.000;0.000;2024-01-10T13:42:13;6.25;;;4.28;;
66707;SDS011;53622;0.000;0.000;2024-01-10T13:44:42;5.60;;;4.80;;
66707;SDS011;53622;0.000;0.000;2024-01-10T13:47:10;5.13;;;3.92;;
66707;SDS011;53622;0.000;0.000;2024-01-10T13:49:39;4.60;;;4.20;;
66707;SDS011;53622;0.000;0.000;2024-01-10T13:52:08;5.53;;;4.60;;
66707;SDS011;53622;0.000;0.000;2024-01-10T13:54:37;6.10;;;4.50;;
66707;SDS011;53622;0.000;0.000;2024-01-10T13:57:07;5.80;;;4.10;;
66707;SDS011;53622;0.000;0.000;2024-01-10T13:59:36;4.60;;;4.20;;
66707;SDS011;53622;0.000;0.000;2024-01-10T14:02:05;4.45;;;4.05;;
66707;SDS011;53622;0.000;0.000;2024-01-10T14:04:34;4.65;;;4.25;;
66707;SDS011;53622;0.000;0.000;2024-01-10T14:07:02;4.95;;;4.25;;
66707;SDS011;53622;0.000;0.000;2024-01-10T14:09:31;5.25;;;3.90;;
66707;SDS011;53622;0.000;0.000;2024-01-10T14:12:01;3.97;;;3.67;;
66707;SDS011;53622;0.000;0.000;2024-01-10T14:14:32;4.50;;;4.10;;
66707;SDS011;53622;0.000;0.000;2024-01-10T14:17:00;5.00;;;4.30;;
66707;SDS011;53622;0.000;0.000;2024-01-10T14:19:31;4.03;;;3.70;;
66707;SDS011;53622;0.000;0.000;2024-01-10T14:21:59;4.43;;;3.78;;
66707;SDS011;53622;0.000;0.000;2024-01-10T14:24:42;4.75;;;4.30;;
66707;SDS011;53622;0.000;0.000;2024-01-10T14:27:11;4.25;;;3.90;;
66707;SDS011;53622;0.000;0.000;2024-01-10T14:29:41;4.60;;;4.20;;
66707;SDS011;53622;0.000;0.000;2024-01-10T14:32:10;4.28;;;3.88;;
66707;SDS011;53622;0.000;0.000;2024-01-10T14:34:44;4.30;;;3.90;;
66707;SDS011;53622;0.000;0.000;2024-01-10T14:37:14;4.57;;;4.18;;
66707;SDS011;53622;0.000;0.000;2024-01-10T14:39:42;4.43;;;4.00;;
66707;SDS011;53622;0.000;0.000;2024-01-10T14:42:11;4.30;;;3.90;;
66707;SDS011;53622;0.000;0.000;2024-01-10T14:44:42;4.18;;;3.83;;
66707;SDS011;53622;0.000;0.000;2024-01-10T14:47:14;4.55;;;4.22;;
66707;SDS011;53622;0.000;0.000;2024-01-10T14:49:43;4.28;;;3.90;;
66707;SDS011;53622;0.000;0.000;2024-01-10T14:52:12;4.63;;;4.05;;
66707;SDS011;53622;0.000;0.000;2024-01-10T14:54:41;4.50;;;4.10;;
66707;SDS011;53622;0.000;0.000;2024-01-10T14:57:09;4.38;;;4.05;;
66707;SDS011;53622;0.000;0.000;2024-01-10T14:59:39;4.75;;;4.35;;
66707;SDS011;53622;0.000;0.000;2024-01-10T15:02:14;4.47;;;4.07;;
66707;SDS011;53622;0.000;0.000;2024-01-10T15:04:43;6.05;;;4.72;;
66707;SDS011;53622;0.000;0.000;2024-01-10T15:07:12;4.70;;;4.30;;
66707;SDS011;53622;0.000;0.000;2024-01-10T15:09:42;7.45;;;4.80;;
66707;SDS011;53622;0.000;0.000;2024-01-10T15:12:11;4.65;;;4.28;;
66707;SDS011;53622;0.000;0.000;2024-01-10T15:14:41;5.72;;;4.93;;
66707;SDS011;53622;0.000;0.000;2024-01-10T15:17:10;5.28;;;4.88;;
66707;SDS011;53622;0.000;0.000;2024-01-10T15:19:40;5.65;;;5.15;;